createdAt,value
2022-12-31T00:00:36.475Z,0.60
2022-12-31T00:03:04.672Z,0.60
2022-12-31T00:05:34.746Z,0.60
2022-12-31T00:08:03.349Z,0.67
2022-12-31T00:10:33.053Z,0.60
2022-12-31T00:13:01.029Z,0.60
2022-12-31T00:15:29.397Z,0.60
2022-12-31T00:17:57.358Z,0.60
2022-12-31T00:20:25.245Z,0.60
2022-12-31T00:22:54.573Z,0.70
2022-12-31T00:25:22.867Z,0.60
2022-12-31T00:27:50.910Z,0.60
2022-12-31T00:30:18.955Z,0.60
2022-12-31T00:32:46.803Z,0.60
2022-12-31T00:35:14.905Z,0.60
2022-12-31T00:37:42.782Z,0.60
2022-12-31T00:40:13.034Z,1.07
2022-12-31T00:42:40.944Z,0.60
2022-12-31T00:45:09.843Z,0.60
2022-12-31T00:47:38.013Z,0.60
2022-12-31T00:50:06.889Z,0.60
2022-12-31T00:52:34.818Z,0.70
2022-12-31T00:55:02.772Z,0.60
2022-12-31T00:57:32.015Z,1.20
2022-12-31T01:00:00.298Z,0.60
2022-12-31T01:02:28.487Z,0.60
2022-12-31T01:04:56.442Z,0.60
2022-12-31T01:07:24.345Z,0.60
2022-12-31T01:09:53.818Z,0.60
2022-12-31T01:12:22.127Z,0.77
2022-12-31T01:14:51.360Z,0.60
2022-12-31T01:17:19.330Z,0.63
2022-12-31T01:19:47.245Z,0.80
2022-12-31T01:22:15.150Z,0.60
2022-12-31T01:24:43.239Z,0.60
2022-12-31T01:27:11.195Z,0.60
2022-12-31T01:29:39.108Z,0.60
2022-12-31T01:32:08.699Z,0.60
2022-12-31T01:34:36.863Z,0.60
2022-12-31T01:37:04.757Z,0.60
2022-12-31T01:39:32.720Z,0.60
2022-12-31T01:42:00.583Z,0.60
2022-12-31T01:44:53.869Z,0.60
2022-12-31T01:47:34.067Z,0.70
2022-12-31T01:50:08.037Z,0.60
2022-12-31T01:52:40.127Z,0.70
2022-12-31T01:55:14.863Z,0.60
2022-12-31T01:57:43.967Z,0.60
2022-12-31T02:00:12.537Z,0.60
2022-12-31T02:02:41.905Z,0.80
2022-12-31T02:05:18.149Z,1.07
2022-12-31T02:07:46.565Z,0.60
2022-12-31T02:10:14.424Z,0.60
2022-12-31T02:12:42.563Z,0.80
2022-12-31T02:15:11.452Z,0.60
2022-12-31T02:17:49.807Z,0.70
2022-12-31T02:20:59.801Z,0.60
2022-12-31T02:23:55.984Z,0.60
2022-12-31T02:26:56.837Z,0.60
2022-12-31T02:29:59.729Z,0.60
2022-12-31T02:32:38.680Z,0.60
2022-12-31T02:35:12.043Z,0.60
2022-12-31T02:37:41.732Z,0.60
2022-12-31T02:40:14.364Z,0.60
2022-12-31T02:42:42.345Z,0.70
2022-12-31T02:45:14.072Z,0.70
2022-12-31T02:47:52.386Z,0.60
2022-12-31T02:50:35.044Z,0.60
2022-12-31T02:53:12.422Z,0.67
2022-12-31T02:55:50.305Z,0.60
2022-12-31T02:58:43.907Z,0.60
2022-12-31T03:01:31.194Z,0.60
2022-12-31T03:04:24.711Z,0.70
2022-12-31T03:06:53.421Z,0.60
2022-12-31T03:09:21.332Z,0.60
2022-12-31T03:12:06.928Z,0.70
2022-12-31T03:14:34.925Z,0.60
2022-12-31T03:17:02.868Z,0.60
2022-12-31T03:19:49.693Z,0.60
2022-12-31T03:22:29.660Z,0.60
2022-12-31T03:25:17.394Z,0.60
2022-12-31T03:27:45.741Z,0.60
2022-12-31T03:30:20.606Z,0.60
2022-12-31T03:32:49.833Z,0.60
2022-12-31T03:35:21.312Z,0.60
2022-12-31T03:37:50.739Z,0.60
2022-12-31T03:40:20.477Z,1.13
2022-12-31T03:42:48.360Z,0.60
2022-12-31T03:45:17.132Z,0.67
2022-12-31T03:47:45.156Z,0.60
2022-12-31T03:50:15.285Z,0.70
2022-12-31T03:52:45.352Z,0.60
2022-12-31T03:55:14.175Z,0.60
2022-12-31T03:57:42.347Z,0.60
2022-12-31T04:00:13.940Z,0.60
2022-12-31T04:02:42.472Z,0.70
2022-12-31T04:05:11.081Z,0.60
2022-12-31T04:07:39.507Z,0.60
2022-12-31T04:10:11.586Z,0.60
2022-12-31T04:12:39.630Z,0.60
2022-12-31T04:15:09.463Z,0.60
2022-12-31T04:17:37.649Z,0.60
2022-12-31T04:20:06.324Z,0.60
2022-12-31T04:22:34.220Z,0.60
2022-12-31T04:25:02.145Z,0.60
2022-12-31T04:27:31.486Z,1.00
2022-12-31T04:29:59.419Z,0.60
2022-12-31T04:32:27.301Z,0.60
2022-12-31T04:34:55.296Z,0.60
2022-12-31T04:37:23.249Z,0.60
2022-12-31T04:39:51.288Z,0.60
2022-12-31T04:42:19.186Z,0.60
2022-12-31T04:44:48.484Z,0.60
2022-12-31T04:47:23.273Z,0.60
2022-12-31T04:49:51.759Z,0.60
2022-12-31T04:52:19.679Z,0.60
2022-12-31T04:54:47.575Z,0.60
2022-12-31T04:57:15.492Z,0.60
2022-12-31T04:59:43.423Z,0.60
2022-12-31T05:02:12.956Z,0.60
2022-12-31T05:04:41.018Z,0.60
2022-12-31T05:07:08.979Z,0.60
2022-12-31T05:09:36.859Z,0.60
2022-12-31T05:12:05.150Z,0.60
2022-12-31T05:14:33.109Z,0.60
2022-12-31T05:17:01.211Z,0.70
2022-12-31T05:19:30.651Z,0.70
2022-12-31T05:22:16.117Z,0.60
2022-12-31T05:24:44.028Z,0.60
2022-12-31T05:27:11.968Z,0.60
2022-12-31T05:29:39.923Z,0.60
2022-12-31T05:32:07.794Z,0.80
2022-12-31T05:34:37.107Z,0.60
2022-12-31T05:37:05.088Z,0.60
2022-12-31T05:39:32.994Z,0.80
2022-12-31T05:42:00.971Z,0.60
2022-12-31T05:44:28.914Z,0.60
2022-12-31T05:46:56.900Z,0.60
2022-12-31T05:49:24.786Z,0.60
2022-12-31T05:51:54.120Z,0.60
2022-12-31T05:54:22.561Z,0.70
2022-12-31T05:56:50.545Z,0.70
2022-12-31T05:59:18.446Z,0.60
2022-12-31T06:01:46.358Z,0.60
2022-12-31T06:04:14.351Z,0.60
2022-12-31T06:06:42.459Z,0.97
2022-12-31T06:09:12.004Z,0.60
2022-12-31T06:11:39.956Z,1.17
2022-12-31T06:14:08.019Z,0.60
2022-12-31T06:16:37.035Z,0.70
2022-12-31T06:19:05.027Z,0.60
2022-12-31T06:21:33.149Z,0.60
2022-12-31T06:24:01.508Z,0.60
2022-12-31T06:26:30.765Z,0.70
2022-12-31T06:28:58.743Z,0.60
2022-12-31T06:31:26.712Z,0.60
2022-12-31T06:33:54.715Z,0.60
2022-12-31T06:36:22.940Z,0.60
2022-12-31T06:38:50.846Z,0.60
2022-12-31T06:41:19.187Z,0.60
2022-12-31T06:43:48.467Z,0.60
2022-12-31T06:46:18.194Z,0.63
2022-12-31T06:48:46.618Z,0.60
2022-12-31T06:51:17.731Z,0.70
2022-12-31T06:53:46.157Z,0.60
2022-12-31T06:56:18.093Z,0.60
2022-12-31T06:58:48.845Z,0.60
2022-12-31T07:01:44.601Z,0.60
2022-12-31T07:04:48.822Z,0.70
2022-12-31T07:07:22.144Z,0.60
2022-12-31T07:09:56.783Z,0.60
2022-12-31T07:12:37.276Z,0.73
2022-12-31T07:15:14.716Z,0.60
2022-12-31T07:17:52.304Z,0.60
2022-12-31T07:20:21.153Z,0.83
2022-12-31T07:22:49.694Z,0.60
2022-12-31T07:25:19.422Z,0.60
2022-12-31T07:28:03.517Z,0.60
2022-12-31T07:30:41.690Z,0.60
2022-12-31T07:33:24.709Z,0.70
2022-12-31T07:36:03.973Z,0.77
2022-12-31T07:38:39.093Z,0.60
2022-12-31T07:41:16.794Z,0.70
2022-12-31T07:43:54.930Z,0.60
2022-12-31T07:46:31.860Z,0.60
2022-12-31T07:49:00.572Z,0.60
2022-12-31T07:51:29.607Z,0.60
2022-12-31T07:53:57.532Z,0.60
2022-12-31T07:56:25.524Z,0.60
2022-12-31T07:59:19.616Z,0.60
2022-12-31T08:02:01.868Z,0.60
2022-12-31T08:04:34.820Z,0.60
2022-12-31T08:07:12.453Z,0.70
2022-12-31T08:09:51.088Z,0.60
2022-12-31T08:12:20.374Z,0.60
2022-12-31T08:14:49.694Z,0.60
2022-12-31T08:17:20.869Z,0.60
2022-12-31T08:19:49.447Z,0.60
2022-12-31T08:22:41.027Z,0.70
2022-12-31T08:25:18.095Z,0.60
2022-12-31T08:27:56.316Z,0.90
2022-12-31T08:30:30.797Z,0.70
2022-12-31T08:33:09.046Z,0.60
2022-12-31T08:35:53.273Z,0.70
2022-12-31T08:38:32.889Z,0.60
2022-12-31T08:41:09.104Z,0.60
2022-12-31T08:43:49.504Z,0.60
2022-12-31T08:46:25.240Z,0.60
2022-12-31T08:48:54.933Z,0.70
2022-12-31T08:51:26.261Z,1.60
2022-12-31T08:53:55.258Z,0.70
2022-12-31T08:56:31.720Z,0.60
2022-12-31T08:59:19.958Z,0.60
2022-12-31T09:02:03.644Z,0.60
2022-12-31T09:04:46.035Z,0.60
2022-12-31T09:07:16.836Z,0.60
2022-12-31T09:09:58.425Z,0.60
2022-12-31T09:12:32.702Z,0.70
2022-12-31T09:15:07.722Z,1.10
2022-12-31T09:17:45.383Z,0.60
2022-12-31T09:20:23.179Z,0.60
2022-12-31T09:22:51.525Z,0.60
2022-12-31T09:25:22.892Z,0.60
2022-12-31T09:28:09.475Z,0.60
2022-12-31T09:30:48.378Z,0.70
2022-12-31T09:33:31.961Z,0.70
2022-12-31T09:36:06.434Z,0.60
2022-12-31T09:38:41.926Z,0.60
2022-12-31T09:41:26.473Z,0.60
2022-12-31T09:44:32.862Z,0.70
2022-12-31T09:47:31.681Z,0.60
2022-12-31T09:50:29.798Z,0.63
2022-12-31T09:53:23.598Z,0.60
2022-12-31T09:55:57.017Z,0.60
2022-12-31T09:58:38.117Z,0.60
2022-12-31T10:01:17.448Z,0.60
2022-12-31T10:04:16.527Z,0.60
2022-12-31T10:06:53.112Z,0.60
2022-12-31T10:09:52.012Z,0.60
2022-12-31T10:12:46.659Z,0.60
2022-12-31T10:15:36.891Z,0.60
2022-12-31T10:18:12.696Z,0.60
2022-12-31T10:20:58.880Z,0.70
2022-12-31T10:23:56.611Z,0.60
2022-12-31T10:26:38.605Z,0.60
2022-12-31T10:29:19.956Z,0.60
2022-12-31T10:31:57.419Z,0.60
2022-12-31T10:34:30.717Z,0.60
2022-12-31T10:37:07.245Z,0.70
2022-12-31T10:39:47.369Z,0.60
2022-12-31T10:42:47.762Z,0.70
2022-12-31T10:45:55.331Z,0.70
2022-12-31T10:48:57.799Z,0.60
2022-12-31T10:52:11.828Z,0.60
2022-12-31T10:55:04.991Z,0.60
2022-12-31T10:58:11.848Z,0.60
2022-12-31T11:00:45.325Z,0.67
2022-12-31T11:03:48.898Z,0.60
2022-12-31T11:07:02.124Z,0.80
2022-12-31T11:10:05.702Z,0.60
2022-12-31T11:13:04.789Z,0.60
2022-12-31T11:15:50.371Z,0.60
2022-12-31T11:18:31.933Z,0.60
2022-12-31T11:21:26.220Z,0.60
2022-12-31T11:24:04.301Z,0.70
2022-12-31T11:26:46.977Z,0.60
2022-12-31T11:29:43.061Z,0.60
2022-12-31T11:32:27.387Z,0.63
2022-12-31T11:35:19.116Z,0.60
2022-12-31T11:37:49.599Z,0.60
2022-12-31T11:40:33.363Z,0.60
2022-12-31T11:43:03.265Z,0.60
2022-12-31T11:46:05.656Z,0.60
2022-12-31T11:48:37.580Z,0.60
2022-12-31T11:51:32.179Z,0.60
2022-12-31T11:54:25.190Z,0.70
2022-12-31T11:57:03.354Z,0.60
2022-12-31T11:59:31.297Z,0.60
2022-12-31T12:02:05.220Z,0.60
2022-12-31T12:04:33.137Z,0.60
2022-12-31T12:07:01.554Z,0.60
2022-12-31T12:09:33.010Z,0.60
2022-12-31T12:12:02.242Z,0.80
2022-12-31T12:14:35.203Z,0.70
2022-12-31T12:17:08.950Z,0.60
2022-12-31T12:19:44.172Z,0.60
2022-12-31T12:22:13.619Z,0.60
2022-12-31T12:24:52.475Z,0.70
2022-12-31T12:27:24.059Z,0.60
2022-12-31T12:29:52.023Z,0.60
2022-12-31T12:32:22.908Z,0.60
2022-12-31T12:34:50.765Z,0.60
2022-12-31T12:37:33.315Z,0.60
2022-12-31T12:40:03.164Z,0.60
2022-12-31T12:42:31.827Z,0.60
2022-12-31T12:45:05.736Z,0.60
2022-12-31T12:47:36.075Z,0.60
2022-12-31T12:50:05.530Z,0.60
2022-12-31T12:52:59.617Z,0.70
2022-12-31T12:55:38.329Z,0.60
2022-12-31T12:58:19.270Z,0.70
2022-12-31T13:00:54.188Z,0.60
2022-12-31T13:04:33.070Z,0.60
2022-12-31T13:07:13.959Z,0.60
2022-12-31T13:10:05.858Z,0.60
2022-12-31T13:13:13.784Z,0.60
2022-12-31T13:15:34.644Z,0.60
2022-12-31T13:18:13.588Z,0.70
2022-12-31T13:20:48.443Z,0.60
2022-12-31T13:23:22.963Z,0.60
2022-12-31T13:26:04.392Z,0.60
2022-12-31T13:28:37.098Z,0.60
2022-12-31T13:31:08.908Z,0.60
2022-12-31T13:33:40.899Z,0.60
2022-12-31T13:36:15.180Z,0.60
2022-12-31T13:38:47.564Z,0.60
2022-12-31T13:41:21.396Z,0.60
2022-12-31T13:43:57.207Z,0.60
2022-12-31T13:46:31.981Z,0.60
2022-12-31T13:49:02.807Z,0.60
2022-12-31T13:51:41.298Z,0.60
2022-12-31T13:54:22.974Z,1.00
2022-12-31T13:56:52.613Z,0.60
2022-12-31T13:59:23.333Z,0.60
2022-12-31T14:01:56.386Z,0.70
2022-12-31T14:04:32.669Z,0.60
2022-12-31T14:07:07.539Z,0.70
2022-12-31T14:09:37.719Z,0.70
2022-12-31T14:12:25.165Z,0.60
2022-12-31T14:15:02.318Z,0.87
2022-12-31T14:17:42.987Z,0.70
2022-12-31T14:20:19.921Z,0.60
2022-12-31T14:22:54.791Z,0.60
2022-12-31T14:25:28.293Z,0.60
2022-12-31T14:27:59.163Z,0.70
2022-12-31T14:30:30.752Z,0.60
2022-12-31T14:33:16.467Z,0.60
2022-12-31T14:35:56.986Z,0.60
2022-12-31T14:38:45.905Z,0.60
2022-12-31T14:41:26.536Z,0.60
2022-12-31T14:44:06.772Z,0.60
2022-12-31T14:46:44.258Z,0.60
2022-12-31T14:49:25.930Z,0.60
2022-12-31T14:51:53.860Z,0.63
2022-12-31T14:54:29.599Z,0.90
2022-12-31T14:56:57.539Z,0.60
2022-12-31T14:59:28.160Z,0.70
2022-12-31T15:01:58.139Z,0.60
2022-12-31T15:04:33.343Z,0.60
2022-12-31T15:07:11.974Z,0.60
2022-12-31T15:10:00.806Z,0.60
2022-12-31T15:12:51.197Z,0.80
2022-12-31T15:15:33.106Z,0.80
2022-12-31T15:18:24.509Z,0.60
2022-12-31T15:21:14.552Z,0.60
2022-12-31T15:23:43.884Z,0.60
2022-12-31T15:26:24.250Z,0.60
2022-12-31T15:29:01.908Z,0.80
2022-12-31T15:31:30.238Z,0.80
2022-12-31T15:34:00.368Z,0.60
2022-12-31T15:36:30.608Z,0.70
2022-12-31T15:39:25.590Z,1.17
2022-12-31T15:42:36.130Z,0.60
2022-12-31T15:44:49.980Z,0.60
2022-12-31T15:47:26.770Z,0.60
2022-12-31T15:49:55.916Z,0.60
2022-12-31T15:52:27.327Z,0.70
2022-12-31T15:54:57.824Z,0.60
2022-12-31T15:57:33.105Z,0.60
2022-12-31T16:00:02.287Z,0.90
2022-12-31T16:02:39.181Z,0.60
2022-12-31T16:05:07.914Z,1.73
2022-12-31T16:07:36.285Z,0.60
2022-12-31T16:10:05.503Z,0.60
2022-12-31T16:12:44.445Z,1.17
2022-12-31T16:15:22.200Z,0.60
2022-12-31T16:18:01.739Z,0.70
2022-12-31T16:20:31.433Z,0.60
2022-12-31T16:23:03.377Z,0.60
2022-12-31T16:25:34.042Z,0.67
2022-12-31T16:28:05.053Z,0.60
2022-12-31T16:30:35.744Z,0.60
2022-12-31T16:33:05.899Z,0.60
2022-12-31T16:35:36.285Z,0.60
2022-12-31T16:38:16.248Z,0.70
2022-12-31T16:40:59.708Z,0.60
2022-12-31T16:43:31.240Z,0.60
2022-12-31T16:46:09.522Z,0.80
2022-12-31T16:48:38.358Z,0.80
2022-12-31T16:51:06.968Z,0.90
2022-12-31T16:53:38.872Z,0.60
2022-12-31T16:56:09.856Z,0.60
2022-12-31T16:58:45.459Z,0.60
2022-12-31T17:01:17.569Z,0.60
2022-12-31T17:03:50.019Z,1.67
2022-12-31T17:06:20.041Z,0.60
2022-12-31T17:09:03.479Z,0.60
2022-12-31T17:11:36.647Z,0.60
2022-12-31T17:14:14.967Z,0.60
2022-12-31T17:16:59.696Z,0.60
2022-12-31T17:19:49.198Z,0.80
2022-12-31T17:22:31.820Z,0.80
2022-12-31T17:25:06.249Z,0.60
2022-12-31T17:27:35.692Z,1.00
2022-12-31T17:30:35.620Z,0.60
2022-12-31T17:33:05.590Z,0.60
2022-12-31T17:35:34.662Z,0.60
2022-12-31T17:38:31.066Z,5.60
2022-12-31T17:41:09.765Z,1.00
2022-12-31T17:43:38.892Z,0.70
2022-12-31T17:46:12.971Z,0.70
2022-12-31T17:48:41.646Z,1.17
2022-12-31T17:51:09.591Z,2.23
2022-12-31T17:53:37.601Z,0.60
2022-12-31T17:56:14.268Z,1.13
2022-12-31T17:58:46.483Z,0.60
2022-12-31T18:01:18.506Z,0.83
2022-12-31T18:03:47.894Z,0.60
2022-12-31T18:06:17.335Z,1.13
2022-12-31T18:08:47.484Z,0.90
2022-12-31T18:11:18.638Z,0.70
2022-12-31T18:13:46.979Z,2.40
2022-12-31T18:16:17.897Z,0.83
2022-12-31T18:18:45.864Z,0.70
2022-12-31T18:21:18.942Z,0.60
2022-12-31T18:23:48.996Z,0.60
2022-12-31T18:26:18.710Z,0.60
2022-12-31T18:28:46.978Z,0.60
2022-12-31T18:31:20.093Z,0.70
2022-12-31T18:33:48.485Z,1.43
2022-12-31T18:36:18.126Z,0.70
2022-12-31T18:38:46.239Z,0.60
2022-12-31T18:41:18.571Z,0.60
2022-12-31T18:43:47.394Z,0.80
2022-12-31T18:46:20.179Z,0.60
2022-12-31T18:48:48.205Z,0.60
2022-12-31T18:51:17.660Z,0.60
2022-12-31T18:53:46.277Z,0.60
2022-12-31T18:56:15.697Z,0.67
2022-12-31T18:58:44.283Z,0.60
2022-12-31T19:01:26.372Z,0.60
2022-12-31T19:03:54.985Z,0.60
2022-12-31T19:06:23.339Z,0.70
2022-12-31T19:08:51.539Z,0.70
2022-12-31T19:11:20.306Z,0.70
2022-12-31T19:13:48.684Z,0.60
2022-12-31T19:16:18.059Z,1.00
2022-12-31T19:18:47.392Z,0.70
2022-12-31T19:21:17.827Z,0.70
2022-12-31T19:23:46.360Z,1.17
2022-12-31T19:26:17.259Z,0.60
2022-12-31T19:28:46.115Z,0.60
2022-12-31T19:31:14.345Z,0.80
2022-12-31T19:33:44.281Z,0.60
2022-12-31T19:36:16.246Z,0.60
2022-12-31T19:38:45.151Z,1.00
2022-12-31T19:41:17.048Z,0.60
2022-12-31T19:43:44.986Z,0.60
2022-12-31T19:46:15.465Z,1.63
2022-12-31T19:48:45.440Z,0.67
2022-12-31T19:51:18.242Z,0.80
2022-12-31T19:53:46.717Z,0.60
2022-12-31T19:56:16.937Z,0.60
2022-12-31T19:58:45.241Z,0.80
2022-12-31T20:01:20.213Z,1.03
2022-12-31T20:03:50.244Z,0.70
2022-12-31T20:06:19.019Z,0.70
2022-12-31T20:08:47.072Z,0.60
2022-12-31T20:11:17.438Z,0.93
2022-12-31T20:13:46.283Z,0.90
2022-12-31T20:16:16.871Z,1.17
2022-12-31T20:18:46.359Z,0.90
2022-12-31T20:21:19.076Z,1.23
2022-12-31T20:23:48.009Z,0.70
2022-12-31T20:26:15.999Z,0.80
2022-12-31T20:28:43.965Z,0.70
2022-12-31T20:31:14.040Z,0.70
2022-12-31T20:33:42.803Z,0.70
2022-12-31T20:36:12.473Z,0.60
2022-12-31T20:38:41.904Z,0.63
2022-12-31T20:41:12.359Z,0.63
2022-12-31T20:43:40.571Z,0.60
2022-12-31T20:46:14.893Z,0.80
2022-12-31T20:48:44.221Z,1.23
2022-12-31T20:51:13.053Z,0.70
2022-12-31T20:53:47.873Z,0.70
2022-12-31T20:56:16.540Z,0.80
2022-12-31T20:58:44.794Z,0.80
2022-12-31T21:01:13.476Z,1.17
2022-12-31T21:06:31.928Z,1.57
2022-12-31T21:09:03.072Z,0.60
2022-12-31T21:11:44.963Z,0.70
2022-12-31T21:14:12.921Z,0.70
2022-12-31T21:16:40.891Z,0.70
2022-12-31T21:19:09.877Z,1.10
2022-12-31T21:21:38.123Z,1.00
2022-12-31T21:24:08.191Z,0.60
2022-12-31T21:26:36.580Z,0.60
2022-12-31T21:29:04.540Z,0.67
2022-12-31T21:31:32.562Z,0.60
2022-12-31T21:34:00.642Z,0.60
2022-12-31T21:36:28.604Z,0.60
2022-12-31T21:38:56.532Z,0.73
2022-12-31T21:41:43.513Z,0.63
2022-12-31T21:44:11.477Z,0.70
2022-12-31T21:46:42.622Z,0.60
2022-12-31T21:49:22.761Z,0.80
2022-12-31T21:52:16.607Z,0.70
2022-12-31T21:54:58.460Z,0.60
2022-12-31T21:57:27.775Z,1.00
2022-12-31T22:00:41.844Z,0.80
2022-12-31T22:03:27.944Z,0.63
2022-12-31T22:05:59.112Z,0.63
2022-12-31T22:08:27.981Z,0.70
2022-12-31T22:10:56.027Z,0.60
2022-12-31T22:13:25.531Z,0.80
2022-12-31T22:16:01.817Z,0.70
2022-12-31T22:18:34.408Z,0.70
2022-12-31T22:21:04.080Z,1.53
2022-12-31T22:23:32.859Z,0.70
2022-12-31T22:26:01.323Z,0.70
2022-12-31T22:28:39.848Z,0.60
2022-12-31T22:31:08.878Z,0.77
2022-12-31T22:33:36.844Z,0.70
2022-12-31T22:36:07.659Z,0.60
2022-12-31T22:38:35.921Z,0.60
2022-12-31T22:41:06.580Z,0.60
2022-12-31T22:43:36.975Z,0.60
2022-12-31T22:46:09.575Z,0.60
2022-12-31T22:48:37.826Z,1.63
2022-12-31T22:51:06.209Z,0.60
2022-12-31T22:53:34.549Z,1.10
2022-12-31T22:56:02.714Z,0.60
2022-12-31T22:58:30.600Z,0.60
2022-12-31T23:00:59.969Z,1.30
2022-12-31T23:03:28.071Z,2.60
2022-12-31T23:05:56.149Z,4.23
2022-12-31T23:08:24.273Z,4.90
2022-12-31T23:11:05.724Z,6.80
2022-12-31T23:13:56.287Z,6.03
2022-12-31T23:16:44.749Z,8.77
2022-12-31T23:19:30.642Z,3.77
2022-12-31T23:22:16.419Z,3.23
2022-12-31T23:24:44.437Z,3.40
2022-12-31T23:27:12.898Z,3.23
2022-12-31T23:29:46.803Z,6.60
2022-12-31T23:32:18.375Z,2.80
2022-12-31T23:34:47.257Z,3.00
2022-12-31T23:37:15.908Z,1.90
2022-12-31T23:39:44.046Z,1.30
2022-12-31T23:42:11.961Z,1.60
2022-12-31T23:44:39.883Z,2.87
2022-12-31T23:47:07.837Z,3.73
2022-12-31T23:49:37.213Z,3.20
2022-12-31T23:52:05.267Z,3.40
2022-12-31T23:54:33.088Z,2.63
2022-12-31T23:57:01.015Z,2.10
2022-12-31T23:59:28.896Z,2.37
